createdAt,value
2019-03-31T00:01:23.778Z,59.90
2019-03-31T00:03:51.240Z,60.00
2019-03-31T00:06:18.776Z,60.70
2019-03-31T00:08:46.499Z,60.60
2019-03-31T00:11:14.244Z,60.60
2019-03-31T00:13:41.951Z,60.50
2019-03-31T00:16:09.611Z,60.70
2019-03-31T00:18:37.298Z,60.70
2019-03-31T00:21:04.789Z,60.90
2019-03-31T00:23:32.569Z,61.00
2019-03-31T00:26:00.167Z,61.00
2019-03-31T00:28:27.634Z,61.40
2019-03-31T00:30:58.375Z,61.10
2019-03-31T00:33:25.980Z,61.30
2019-03-31T00:35:53.670Z,62.00
2019-03-31T00:38:21.327Z,62.30
2019-03-31T00:40:49.032Z,62.10
2019-03-31T00:43:16.666Z,61.20
2019-03-31T00:45:44.122Z,62.10
2019-03-31T00:48:11.600Z,61.80
2019-03-31T00:50:39.351Z,62.00
2019-03-31T00:53:06.833Z,61.60
2019-03-31T00:55:34.464Z,62.10
2019-03-31T00:58:01.957Z,62.20
2019-03-31T01:00:38.155Z,63.30
2019-03-31T01:03:06.021Z,61.80
2019-03-31T01:05:34.365Z,60.80
2019-03-31T01:08:01.822Z,61.50
2019-03-31T01:10:29.609Z,62.70
2019-03-31T01:12:57.581Z,63.00
2019-03-31T01:15:25.753Z,63.10
2019-03-31T01:17:53.660Z,63.80
2019-03-31T01:20:21.130Z,64.00
2019-03-31T01:22:48.682Z,63.00
2019-03-31T01:25:17.561Z,62.80
2019-03-31T01:27:45.312Z,62.90
2019-03-31T01:30:13.306Z,63.30
2019-03-31T01:32:41.091Z,63.50
2019-03-31T01:35:09.769Z,63.40
2019-03-31T01:37:37.296Z,63.80
2019-03-31T01:40:04.809Z,64.20
2019-03-31T01:42:32.368Z,64.60
2019-03-31T01:44:59.940Z,63.20
2019-03-31T01:47:27.566Z,63.50
2019-03-31T01:49:55.088Z,64.30
2019-03-31T01:52:22.746Z,65.00
2019-03-31T01:54:50.401Z,65.00
2019-03-31T01:57:18.040Z,64.60
2019-03-31T01:59:45.660Z,64.40
2019-03-31T02:02:15.222Z,65.20
2019-03-31T02:04:42.707Z,64.80
2019-03-31T02:07:10.328Z,64.70
2019-03-31T02:09:38.018Z,64.30
2019-03-31T02:12:05.572Z,64.40
2019-03-31T02:14:33.047Z,65.00
2019-03-31T02:17:00.637Z,64.30
2019-03-31T02:19:28.185Z,65.30
2019-03-31T02:21:55.894Z,66.50
2019-03-31T02:24:23.795Z,66.40
2019-03-31T02:26:51.376Z,67.20
2019-03-31T02:29:18.897Z,66.80
2019-03-31T02:31:46.353Z,66.80
2019-03-31T02:34:14.045Z,66.70
2019-03-31T02:36:41.650Z,65.80
2019-03-31T02:39:09.212Z,66.40
2019-03-31T02:41:36.838Z,66.80
2019-03-31T02:44:04.362Z,66.30
2019-03-31T02:46:31.934Z,66.20
2019-03-31T02:48:59.625Z,67.50
2019-03-31T02:51:27.242Z,66.10
2019-03-31T02:53:55.206Z,66.70
2019-03-31T02:56:22.999Z,66.70
2019-03-31T02:58:52.982Z,66.90
2019-03-31T03:01:23.062Z,66.20
2019-03-31T03:03:51.636Z,67.30
2019-03-31T03:06:20.463Z,67.40
2019-03-31T03:08:50.144Z,67.30
2019-03-31T03:11:19.607Z,67.40
2019-03-31T03:13:48.933Z,67.40
2019-03-31T03:16:17.852Z,66.80
2019-03-31T03:18:46.682Z,67.40
2019-03-31T03:21:14.277Z,67.30
2019-03-31T03:23:41.906Z,67.20
2019-03-31T03:26:09.590Z,66.20
2019-03-31T03:28:37.198Z,67.40
2019-03-31T03:31:05.170Z,67.30
2019-03-31T03:33:33.029Z,67.60
2019-03-31T03:36:00.650Z,67.30
2019-03-31T03:38:28.274Z,67.30
2019-03-31T03:40:55.880Z,67.20
2019-03-31T03:43:23.415Z,67.20
2019-03-31T03:45:51.014Z,67.20
2019-03-31T03:48:18.655Z,67.50
2019-03-31T03:50:46.249Z,67.40
2019-03-31T03:53:13.872Z,67.20
2019-03-31T03:55:41.545Z,67.80
2019-03-31T03:58:09.165Z,67.10
2019-03-31T04:00:36.683Z,68.30
2019-03-31T04:03:04.248Z,67.50
2019-03-31T04:05:31.885Z,67.20
2019-03-31T04:07:59.438Z,67.60
2019-03-31T04:11:14.278Z,67.60
2019-03-31T04:13:42.254Z,68.10
2019-03-31T04:16:09.922Z,68.80
2019-03-31T04:18:37.495Z,68.80
2019-03-31T04:21:05.142Z,68.00
2019-03-31T04:23:32.738Z,69.10
2019-03-31T04:26:00.361Z,68.30
2019-03-31T04:28:27.947Z,69.20
2019-03-31T04:30:55.528Z,68.80
2019-03-31T04:33:23.071Z,69.30
2019-03-31T04:35:50.644Z,69.40
2019-03-31T04:38:18.288Z,69.40
2019-03-31T04:40:45.877Z,69.30
2019-03-31T04:43:13.330Z,69.00
2019-03-31T04:45:41.117Z,69.50
2019-03-31T04:48:08.629Z,69.10
2019-03-31T04:50:36.112Z,68.70
2019-03-31T04:53:03.924Z,68.70
2019-03-31T04:55:31.446Z,68.80
2019-03-31T04:57:59.159Z,69.80
2019-03-31T05:00:26.765Z,68.80
2019-03-31T05:02:54.248Z,69.80
2019-03-31T05:05:21.844Z,69.60
2019-03-31T05:07:49.472Z,69.10
2019-03-31T05:10:16.917Z,69.30
2019-03-31T05:12:44.392Z,69.60
2019-03-31T05:15:12.016Z,69.50
2019-03-31T05:17:39.463Z,69.60
2019-03-31T05:20:07.091Z,70.90
2019-03-31T05:22:34.596Z,70.20
2019-03-31T05:25:06.517Z,70.10
2019-03-31T05:27:34.048Z,70.20
2019-03-31T05:30:01.640Z,70.00
2019-03-31T05:32:29.244Z,69.80
2019-03-31T05:34:56.893Z,70.60
2019-03-31T05:37:24.482Z,69.90
2019-03-31T05:39:52.054Z,69.90
2019-03-31T05:42:19.572Z,70.30
2019-03-31T05:44:47.260Z,70.30
2019-03-31T05:47:14.704Z,70.60
2019-03-31T05:49:42.607Z,71.30
2019-03-31T05:52:10.073Z,71.30
2019-03-31T05:54:37.700Z,71.40
2019-03-31T05:57:05.249Z,70.40
2019-03-31T05:59:32.868Z,71.30
2019-03-31T06:02:00.607Z,71.10
2019-03-31T06:04:33.412Z,71.00
2019-03-31T06:06:57.573Z,71.50
2019-03-31T06:09:25.203Z,71.40
2019-03-31T06:11:53.541Z,71.20
2019-03-31T06:14:22.006Z,71.50
2019-03-31T06:16:49.997Z,71.60
2019-03-31T06:19:18.119Z,72.40
2019-03-31T06:21:45.833Z,71.90
2019-03-31T06:24:13.855Z,71.70
2019-03-31T06:26:41.736Z,71.40
2019-03-31T06:29:09.563Z,72.30
2019-03-31T06:31:37.598Z,71.90
2019-03-31T06:34:05.218Z,72.10
2019-03-31T06:36:32.887Z,71.90
2019-03-31T06:39:00.812Z,71.60
2019-03-31T06:41:28.424Z,72.20
2019-03-31T06:43:56.037Z,71.80
2019-03-31T06:46:23.677Z,71.60
2019-03-31T06:48:51.582Z,72.70
2019-03-31T06:51:19.152Z,72.50
2019-03-31T06:53:47.831Z,72.80
2019-03-31T06:56:15.515Z,70.90
2019-03-31T06:58:43.038Z,70.30
2019-03-31T07:01:10.473Z,70.40
2019-03-31T07:03:38.055Z,68.90
2019-03-31T07:06:05.570Z,68.90
2019-03-31T07:08:33.244Z,68.80
2019-03-31T07:11:00.963Z,67.90
2019-03-31T07:13:29.101Z,68.10
2019-03-31T07:15:56.711Z,67.50
2019-03-31T07:18:24.305Z,67.60
2019-03-31T07:20:52.160Z,67.50
2019-03-31T07:23:19.745Z,67.00
2019-03-31T07:25:47.356Z,67.00
2019-03-31T07:28:15.310Z,66.80
2019-03-31T07:30:43.055Z,66.10
2019-03-31T07:33:11.505Z,66.00
2019-03-31T07:35:39.659Z,66.10
2019-03-31T07:38:07.612Z,65.70
2019-03-31T07:40:35.785Z,65.60
2019-03-31T07:43:03.435Z,65.40
2019-03-31T07:45:31.086Z,65.40
2019-03-31T07:47:59.117Z,64.30
2019-03-31T07:50:28.374Z,64.50
2019-03-31T07:52:56.747Z,64.50
2019-03-31T07:55:24.862Z,64.30
2019-03-31T07:57:54.574Z,64.90
2019-03-31T08:00:23.129Z,54.70
2019-03-31T08:02:52.168Z,48.10
2019-03-31T08:05:32.386Z,41.70
2019-03-31T08:07:50.124Z,37.90
2019-03-31T08:10:18.442Z,38.80
2019-03-31T08:12:46.394Z,37.10
2019-03-31T08:15:16.438Z,35.50
2019-03-31T08:17:45.423Z,32.40
2019-03-31T08:20:14.579Z,30.70
2019-03-31T08:22:42.099Z,31.30
2019-03-31T08:25:11.834Z,29.50
2019-03-31T08:27:39.774Z,29.60
2019-03-31T08:30:09.449Z,28.60
2019-03-31T08:32:37.307Z,29.10
2019-03-31T08:35:07.815Z,28.10
2019-03-31T08:37:36.518Z,29.50
2019-03-31T08:40:05.423Z,29.20
2019-03-31T08:42:33.210Z,28.70
2019-03-31T08:45:00.877Z,28.70
2019-03-31T08:47:28.378Z,28.60
2019-03-31T08:49:57.764Z,30.90
2019-03-31T08:52:25.578Z,33.00
2019-03-31T08:54:53.628Z,35.60
2019-03-31T08:57:21.115Z,36.90
2019-03-31T08:59:48.672Z,37.10
2019-03-31T09:02:23.951Z,39.00
2019-03-31T09:04:51.540Z,39.80
2019-03-31T09:07:24.022Z,39.20
2019-03-31T09:09:51.636Z,39.90
2019-03-31T09:12:19.276Z,40.10
2019-03-31T09:14:48.226Z,40.40
2019-03-31T09:17:15.865Z,41.30
2019-03-31T09:19:43.410Z,40.80
2019-03-31T09:22:11.254Z,42.10
2019-03-31T09:24:38.893Z,40.90
2019-03-31T09:27:12.744Z,41.50
2019-03-31T09:29:40.388Z,41.40
2019-03-31T09:32:08.101Z,42.00
2019-03-31T09:34:54.272Z,41.80
2019-03-31T09:37:22.231Z,42.60
2019-03-31T09:39:50.174Z,42.70
2019-03-31T09:42:17.770Z,42.90
2019-03-31T09:44:51.464Z,43.70
2019-03-31T09:47:18.985Z,44.40
2019-03-31T09:49:46.521Z,44.20
2019-03-31T09:52:14.052Z,43.80
2019-03-31T09:54:45.043Z,43.60
2019-03-31T09:57:12.844Z,43.50
2019-03-31T09:59:43.269Z,43.80
2019-03-31T10:02:10.966Z,42.90
2019-03-31T10:04:39.088Z,43.10
2019-03-31T10:07:06.702Z,43.00
2019-03-31T10:09:44.905Z,43.00
2019-03-31T10:12:12.474Z,43.80
2019-03-31T10:14:39.924Z,44.70
2019-03-31T10:17:12.092Z,44.30
2019-03-31T10:19:40.384Z,44.60
2019-03-31T10:22:08.053Z,44.90
2019-03-31T10:24:35.691Z,43.90
2019-03-31T10:27:03.293Z,44.00
2019-03-31T10:29:30.968Z,43.60
2019-03-31T10:31:58.681Z,41.80
2019-03-31T10:34:26.225Z,41.10
2019-03-31T10:36:53.917Z,40.70
2019-03-31T10:39:21.393Z,41.50
2019-03-31T10:41:49.209Z,42.30
2019-03-31T10:44:16.810Z,40.50
2019-03-31T10:46:44.312Z,38.80
2019-03-31T10:49:11.808Z,37.60
2019-03-31T10:51:39.388Z,36.00
2019-03-31T10:54:06.961Z,36.10
2019-03-31T10:56:34.601Z,36.90
2019-03-31T10:59:02.105Z,35.00
2019-03-31T11:01:29.694Z,35.20
2019-03-31T11:03:57.176Z,35.10
2019-03-31T11:06:24.657Z,35.70
2019-03-31T11:08:52.336Z,35.40
2019-03-31T11:11:19.794Z,34.70
2019-03-31T11:13:47.443Z,33.90
2019-03-31T11:16:15.096Z,33.90
2019-03-31T11:18:42.740Z,35.10
2019-03-31T11:21:12.487Z,34.20
2019-03-31T11:23:40.121Z,34.30
2019-03-31T11:26:07.660Z,35.00
2019-03-31T11:28:35.261Z,34.70
2019-03-31T11:31:03.159Z,35.10
2019-03-31T11:33:30.840Z,35.60
2019-03-31T11:35:58.293Z,35.70
2019-03-31T11:38:25.998Z,36.20
2019-03-31T11:40:53.779Z,35.50
2019-03-31T11:43:21.633Z,35.90
2019-03-31T11:45:49.351Z,36.00
2019-03-31T11:48:17.299Z,35.80
2019-03-31T11:50:46.572Z,35.60
2019-03-31T11:53:14.257Z,36.50
2019-03-31T11:55:41.873Z,36.20
2019-03-31T11:58:09.668Z,35.70
2019-03-31T12:00:42.047Z,35.50
2019-03-31T12:03:09.584Z,35.30
2019-03-31T12:05:37.128Z,34.80
2019-03-31T12:08:04.602Z,34.60
2019-03-31T12:10:32.178Z,34.20
2019-03-31T12:12:59.963Z,33.80
2019-03-31T12:15:27.944Z,33.70
2019-03-31T12:17:55.572Z,34.10
2019-03-31T12:20:23.097Z,34.10
2019-03-31T12:22:50.539Z,34.60
2019-03-31T12:25:19.815Z,34.90
2019-03-31T12:27:47.460Z,35.10
2019-03-31T12:30:20.356Z,34.60
2019-03-31T12:32:47.969Z,34.60
2019-03-31T12:35:15.432Z,35.10
2019-03-31T12:37:43.539Z,34.80
2019-03-31T12:40:23.670Z,34.70
2019-03-31T12:42:51.366Z,34.60
2019-03-31T12:45:19.484Z,34.60
2019-03-31T12:47:47.364Z,34.50
2019-03-31T12:50:15.619Z,34.00
2019-03-31T12:52:47.454Z,33.90
2019-03-31T12:55:12.780Z,34.00
2019-03-31T12:57:40.473Z,34.10
2019-03-31T13:00:08.206Z,34.10
2019-03-31T13:02:35.980Z,34.00
2019-03-31T13:05:03.736Z,34.20
2019-03-31T13:07:31.516Z,34.70
2019-03-31T13:09:59.143Z,34.90
2019-03-31T13:12:26.854Z,35.10
2019-03-31T13:14:54.645Z,35.60
2019-03-31T13:17:22.379Z,36.00
2019-03-31T13:19:50.004Z,36.00
2019-03-31T13:22:17.599Z,35.50
2019-03-31T13:24:45.206Z,35.30
2019-03-31T13:27:13.097Z,35.10
2019-03-31T13:29:41.079Z,34.40
2019-03-31T13:32:08.687Z,34.10
2019-03-31T13:34:36.296Z,33.10
2019-03-31T13:37:04.044Z,33.60
2019-03-31T13:39:31.676Z,33.80
2019-03-31T13:41:59.363Z,32.90
2019-03-31T13:44:26.940Z,32.90
2019-03-31T13:46:54.555Z,32.70
2019-03-31T13:49:22.045Z,33.30
2019-03-31T13:51:49.640Z,33.40
2019-03-31T13:54:17.149Z,33.70
2019-03-31T13:56:47.688Z,34.10
2019-03-31T13:59:14.194Z,33.90
2019-03-31T14:01:41.945Z,33.80
2019-03-31T14:04:09.551Z,33.00
2019-03-31T14:06:37.089Z,32.80
2019-03-31T14:09:07.428Z,33.00
2019-03-31T14:11:35.105Z,32.90
2019-03-31T14:14:02.858Z,33.10
2019-03-31T14:16:30.372Z,33.30
2019-03-31T14:18:57.972Z,33.40
2019-03-31T14:21:25.613Z,33.80
2019-03-31T14:23:53.244Z,33.60
2019-03-31T14:26:20.716Z,33.70
2019-03-31T14:28:48.185Z,34.20
2019-03-31T14:31:15.744Z,34.70
2019-03-31T14:33:43.185Z,36.90
2019-03-31T14:36:10.693Z,38.10
2019-03-31T14:38:40.288Z,41.40
2019-03-31T14:41:07.799Z,46.70
2019-03-31T14:43:35.365Z,48.10
2019-03-31T14:46:02.899Z,50.40
2019-03-31T14:48:30.357Z,51.10
2019-03-31T14:50:57.802Z,49.30
2019-03-31T14:53:25.364Z,50.20
2019-03-31T14:55:52.854Z,51.50
2019-03-31T14:58:20.516Z,56.00
2019-03-31T15:00:48.029Z,54.90
2019-03-31T15:03:18.101Z,53.80
2019-03-31T15:05:45.138Z,54.10
2019-03-31T15:08:12.729Z,54.70
2019-03-31T15:10:40.153Z,54.30
2019-03-31T15:13:07.894Z,54.60
2019-03-31T15:15:35.470Z,55.30
2019-03-31T15:18:03.725Z,55.30
2019-03-31T15:20:31.632Z,55.30
2019-03-31T15:22:59.202Z,55.30
2019-03-31T15:25:26.820Z,55.80
2019-03-31T15:27:54.687Z,56.30
2019-03-31T15:30:22.178Z,56.60
2019-03-31T15:32:49.660Z,56.90
2019-03-31T15:35:17.861Z,57.40
2019-03-31T15:37:45.629Z,57.90
2019-03-31T15:40:13.117Z,57.20
2019-03-31T15:42:41.068Z,57.10
2019-03-31T15:45:08.757Z,57.30
2019-03-31T15:47:36.620Z,56.80
2019-03-31T15:50:05.860Z,57.30
2019-03-31T15:52:33.424Z,56.40
2019-03-31T15:55:01.140Z,56.70
2019-03-31T15:57:28.831Z,57.20
2019-03-31T15:59:57.927Z,57.10
2019-03-31T16:02:27.855Z,56.90
2019-03-31T16:04:55.366Z,56.30
2019-03-31T16:07:24.223Z,55.30
2019-03-31T16:09:51.427Z,54.80
2019-03-31T16:12:21.702Z,55.10
2019-03-31T16:14:51.117Z,54.90
2019-03-31T16:17:18.221Z,55.70
2019-03-31T16:19:45.665Z,55.60
2019-03-31T16:22:12.913Z,54.70
2019-03-31T16:24:46.454Z,55.10
2019-03-31T16:27:13.504Z,54.90
2019-03-31T16:29:40.642Z,55.10
2019-03-31T16:32:07.705Z,54.70
2019-03-31T16:34:36.164Z,55.30
2019-03-31T16:37:03.273Z,54.60
2019-03-31T16:39:37.508Z,54.80
2019-03-31T16:41:59.174Z,54.20
2019-03-31T16:44:26.180Z,54.20
2019-03-31T16:46:54.960Z,55.20
2019-03-31T16:49:22.011Z,54.80
2019-03-31T16:51:49.191Z,54.30
2019-03-31T16:54:16.382Z,54.20
2019-03-31T16:56:43.342Z,53.60
2019-03-31T16:59:10.374Z,54.10
2019-03-31T17:01:37.550Z,54.00
2019-03-31T17:04:05.507Z,54.30
2019-03-31T17:06:32.524Z,54.40
2019-03-31T17:08:59.569Z,54.40
2019-03-31T17:11:26.633Z,53.50
2019-03-31T17:13:53.831Z,54.00
2019-03-31T17:16:20.794Z,53.80
2019-03-31T17:18:47.736Z,53.30
2019-03-31T17:21:14.738Z,53.20
2019-03-31T17:23:41.639Z,53.70
2019-03-31T17:26:08.658Z,54.30
2019-03-31T17:28:35.870Z,55.00
2019-03-31T17:31:03.002Z,55.10
2019-03-31T17:33:30.414Z,54.90
2019-03-31T17:35:57.603Z,53.70
2019-03-31T17:38:24.648Z,54.60
2019-03-31T17:40:51.863Z,54.40
2019-03-31T17:43:19.003Z,54.50
2019-03-31T17:45:46.255Z,54.70
2019-03-31T17:48:14.934Z,54.60
2019-03-31T17:50:43.051Z,54.20
2019-03-31T17:53:10.189Z,54.60
2019-03-31T17:55:37.821Z,54.50
2019-03-31T17:58:05.571Z,55.10
2019-03-31T18:00:34.465Z,55.90
2019-03-31T18:03:01.510Z,56.60
2019-03-31T18:05:28.460Z,56.10
2019-03-31T18:07:56.563Z,55.40
2019-03-31T18:10:23.544Z,55.90
2019-03-31T18:12:50.605Z,55.90
2019-03-31T18:15:17.668Z,56.10
2019-03-31T18:17:44.648Z,56.20
2019-03-31T18:20:11.629Z,55.70
2019-03-31T18:22:39.854Z,56.20
2019-03-31T18:25:07.069Z,55.90
2019-03-31T18:27:34.233Z,56.10
2019-03-31T18:30:01.099Z,56.10
2019-03-31T18:32:28.135Z,56.10
2019-03-31T18:34:55.084Z,56.60
2019-03-31T18:37:22.129Z,56.80
2019-03-31T18:39:49.153Z,57.60
2019-03-31T18:42:16.389Z,56.70
2019-03-31T18:44:44.241Z,56.90
2019-03-31T18:47:11.327Z,57.60
2019-03-31T18:49:38.279Z,57.80
2019-03-31T18:52:05.325Z,57.30
2019-03-31T18:54:34.260Z,56.50
2019-03-31T18:57:05.920Z,55.80
2019-03-31T18:59:34.717Z,55.90
2019-03-31T19:02:06.244Z,56.30
2019-03-31T19:04:35.522Z,56.60
2019-03-31T19:07:10.378Z,56.90
2019-03-31T19:09:39.290Z,56.30
2019-03-31T19:12:25.188Z,56.80
2019-03-31T19:14:55.407Z,56.90
2019-03-31T19:17:41.435Z,56.70
2019-03-31T19:20:10.555Z,56.40
2019-03-31T19:22:42.755Z,56.20
2019-03-31T19:25:30.457Z,56.20
2019-03-31T19:28:02.263Z,55.50
2019-03-31T19:30:47.780Z,55.70
2019-03-31T19:33:22.740Z,55.70
2019-03-31T19:36:06.953Z,55.90
2019-03-31T19:38:49.907Z,55.30
2019-03-31T19:41:20.931Z,55.00
2019-03-31T19:43:56.509Z,54.70
2019-03-31T19:46:43.625Z,54.60
2019-03-31T19:49:18.401Z,54.20
2019-03-31T19:51:54.619Z,54.40
2019-03-31T19:54:29.669Z,54.80
2019-03-31T19:57:07.818Z,54.60
2019-03-31T19:59:45.491Z,55.60
2019-03-31T20:02:20.983Z,55.30
2019-03-31T20:04:51.410Z,54.70
2019-03-31T20:07:29.562Z,54.90
2019-03-31T20:10:14.363Z,55.00
2019-03-31T20:12:56.721Z,55.00
2019-03-31T20:15:40.800Z,55.50
2019-03-31T20:18:10.424Z,55.80
2019-03-31T20:20:39.495Z,55.20
2019-03-31T20:23:23.921Z,55.30
2019-03-31T20:25:56.003Z,55.10
2019-03-31T20:28:38.162Z,55.50
2019-03-31T20:31:23.795Z,55.20
2019-03-31T20:33:53.147Z,55.40
2019-03-31T20:36:22.330Z,55.70
2019-03-31T20:39:03.561Z,55.60
2019-03-31T20:41:32.625Z,55.10
2019-03-31T20:43:59.521Z,55.40
2019-03-31T20:46:26.537Z,55.60
2019-03-31T20:48:55.866Z,55.80
2019-03-31T20:51:22.815Z,56.10
2019-03-31T20:53:49.842Z,56.00
2019-03-31T20:56:17.811Z,55.40
2019-03-31T20:58:44.918Z,55.80
2019-03-31T21:01:13.187Z,55.90
2019-03-31T21:03:42.136Z,55.80
2019-03-31T21:06:13.524Z,56.10
2019-03-31T21:08:40.766Z,56.00
2019-03-31T21:11:07.790Z,56.20
2019-03-31T21:13:35.157Z,56.10
2019-03-31T21:16:02.298Z,56.30
2019-03-31T21:18:29.815Z,56.40
2019-03-31T21:20:56.838Z,56.30
2019-03-31T21:23:24.497Z,56.70
2019-03-31T21:25:51.980Z,56.70
2019-03-31T21:28:19.496Z,57.00
2019-03-31T21:30:46.949Z,56.60
2019-03-31T21:33:14.004Z,56.70
2019-03-31T21:35:41.045Z,56.90
2019-03-31T21:38:08.106Z,57.10
2019-03-31T21:40:35.037Z,57.40
2019-03-31T21:43:03.515Z,58.00
2019-03-31T21:45:30.978Z,59.00
2019-03-31T21:47:59.100Z,60.40
2019-03-31T21:50:26.292Z,58.70
2019-03-31T21:52:53.448Z,57.70
2019-03-31T21:55:20.499Z,58.60
2019-03-31T21:57:48.112Z,58.60
2019-03-31T22:00:16.189Z,57.30
2019-03-31T22:02:43.335Z,57.60
2019-03-31T22:05:10.585Z,58.50
2019-03-31T22:07:37.788Z,57.80
2019-03-31T22:10:04.970Z,57.80
2019-03-31T22:12:32.080Z,57.30
2019-03-31T22:14:59.095Z,57.00
2019-03-31T22:17:26.586Z,56.90
2019-03-31T22:19:56.109Z,57.40
2019-03-31T22:22:23.362Z,58.20
2019-03-31T22:24:50.311Z,58.20
2019-03-31T22:27:17.313Z,58.20
2019-03-31T22:29:44.436Z,58.20
2019-03-31T22:32:13.793Z,58.20
2019-03-31T22:34:41.045Z,58.20
2019-03-31T22:37:09.384Z,58.10
2019-03-31T22:39:37.179Z,58.00
2019-03-31T22:42:05.269Z,58.00
2019-03-31T22:44:32.275Z,58.00
2019-03-31T22:47:00.592Z,58.40
2019-03-31T22:49:29.413Z,58.80
2019-03-31T22:51:56.665Z,59.10
2019-03-31T22:54:23.872Z,59.50
2019-03-31T22:56:50.800Z,60.20
2019-03-31T22:59:17.797Z,60.00
2019-03-31T23:01:44.819Z,59.60
2019-03-31T23:04:11.981Z,58.80
2019-03-31T23:06:40.721Z,58.40
2019-03-31T23:09:07.777Z,57.90
2019-03-31T23:11:34.790Z,57.90
2019-03-31T23:14:01.967Z,58.20
2019-03-31T23:16:29.211Z,57.90
2019-03-31T23:18:56.240Z,57.90
2019-03-31T23:21:23.336Z,57.80
2019-03-31T23:23:50.303Z,57.90
2019-03-31T23:26:17.376Z,58.40
2019-03-31T23:28:47.592Z,58.50
2019-03-31T23:31:15.923Z,58.00
2019-03-31T23:33:42.813Z,58.20
2019-03-31T23:36:09.872Z,58.80
2019-03-31T23:38:36.871Z,58.70
2019-03-31T23:41:03.847Z,59.00
2019-03-31T23:43:31.261Z,59.20
2019-03-31T23:45:58.608Z,59.50
2019-03-31T23:48:25.539Z,59.10
2019-03-31T23:50:52.497Z,59.70
2019-03-31T23:53:19.552Z,59.90
2019-03-31T23:55:46.708Z,59.70
2019-03-31T23:58:13.848Z,59.70
